Latest Weather Observations for Gelantipy

IDV60801

Issued at 3:02 pm EDT Thursday 29 January 2015 (issued every 30 minutes, with the page automatically refreshed every 10 minutes)

About weather observations | Map of weather stations | Latest weather observations for VIC | Other Formats
Station Details ID: 084142 Name: GELANTIPY Lat: -37.22 Lon: 148.26 Height: 755.0 m
Data from the previous 72 hours. | See also: Recent months at Gelantipy
Date/Time
EDT
Temp
°C
App
Temp
°C
Dew
Point
Rel
Hum
%
Delta-T
°C
Wind Press
QNH
hPa
Press
MSL
hPa
Rain
since 9 am
mm
Dir
 
Spd
km/h
Gust
km/h
Spd
kts
Gust
kts
29/03:00pm 9.4 5.5 8.5 94 0.5 S 19 32 10 17 1017.6 1014.7 6.2
29/02:30pm 11.1 8.4 9.0 87 1.1 SSW 13 20 7 11 1017.2 1014.2 5.2
29/02:00pm 11.9 8.3 8.4 79 1.8 SW 17 26 9 14 1017.3 1014.3 4.4
29/01:30pm 10.0 7.4 9.4 96 0.3 SW 13 20 7 11 1017.7 1014.8 4.4
29/01:00pm 11.7 7.6 8.7 82 1.6 S 20 33 11 18 1017.7 1014.8 2.2
29/12:30pm 12.4 9.1 9.6 83 1.5 SSW 17 28 9 15 1017.7 1014.8 2.2
29/12:00pm 12.0 9.7 10.4 90 0.9 SSW 13 22 7 12 1017.9 1015.0 2.0
29/11:30am 10.4 7.5 9.5 94 0.5 SW 15 22 8 12 1018.1 1015.2 2.0
29/11:00am 9.7 7.3 8.8 94 0.5 SW 11 20 6 11 1018.3 1015.4 1.4
29/10:30am 10.2 8.0 9.4 95 0.4 SSW 11 19 6 10 1018.2 1015.3 0.0
29/10:00am 9.7 7.3 8.8 94 0.5 SW 11 20 6 11 1018.0 1015.1 0.0
29/09:30am 9.2 6.4 8.6 96 0.3 SSW 13 22 7 12 1018.1 1015.2 0.0
29/09:00am 9.9 7.8 9.6 98 0.2 SSW 11 20 6 11 1018.1 1015.2 10.8
29/08:30am 9.1 6.8 9.0 99 0.1 S 11 17 6 9 1018.0 1015.1 10.8
29/08:00am 8.2 5.3 8.1 99 0.0 SSW 13 19 7 10 1018.0 1015.1 9.8
29/07:30am 8.1 5.2 8.0 99 0.0 SSW 13 20 7 11 1017.7 1014.8 9.0
29/07:00am 8.0 5.0 7.9 99 0.0 SSW 13 24 7 13 1017.5 1014.6 8.8
29/06:30am 7.9 5.7 7.8 99 0.0 S 9 13 5 7 1017.3 1014.3 8.8
29/06:00am 7.7 5.4 7.4 98 0.1 SW 9 15 5 8 1017.1 1014.1 8.6
29/05:30am 8.0 5.0 7.7 98 0.1 SSW 13 22 7 12 1017.1 1014.1 8.2
29/05:00am 8.2 6.0 7.9 98 0.1 SW 9 13 5 7 1017.0 1014.0 7.8
29/04:30am 8.2 5.2 7.9 98 0.1 SSW 13 20 7 11 1017.1 1014.1 7.4
29/04:00am 8.2 6.0 7.9 98 0.1 SW 9 11 5 6 1017.1 1014.1 7.0
29/03:30am 8.2 5.6 7.8 97 0.2 SSW 11 17 6 9 1017.4 1014.5 7.0
29/03:00am 8.3 5.8 8.0 98 0.1 SW 11 17 6 9 1017.6 1014.7 6.6
29/02:30am 8.2 6.0 7.9 98 0.1 SW 9 15 5 8 1017.8 1014.9 6.0
29/02:00am 8.4 6.3 8.1 98 0.1 SW 9 13 5 7 1018.2 1015.3 5.6
29/01:30am 8.6 6.5 8.3 98 0.2 SW 9 15 5 8 1018.3 1015.4 5.0
29/01:00am 8.6 6.5 8.2 97 0.2 SW 9 11 5 6 1018.6 1015.7 5.0
29/12:30am 8.5 6.4 8.1 97 0.2 SSW 9 15 5 8 1019.0 1016.1 5.0
29/12:00am 8.8 6.7 8.4 97 0.2 SSW 9 19 5 10 1019.2 1016.3 5.0
 
Date/Time
EDT
Temp
°C
App
Temp
°C
Dew
Point
Rel
Hum
%
Delta-T
°C
Wind Press
QNH
hPa
Press
MSL
hPa
Rain
since 9 am
mm
Dir
 
Spd
km/h
Gust
km/h
Spd
kts
Gust
kts
28/11:30pm 9.1 7.1 8.6 97 0.3 SSW 9 19 5 10 1019.2 1016.3 5.0
28/11:00pm 9.2 7.3 8.9 98 0.2 SSW 9 20 5 11 1019.5 1016.6 5.0
28/10:30pm 9.5 7.6 9.2 98 0.2 SSW 9 19 5 10 1019.9 1017.0 4.8
28/10:00pm 9.5 7.3 9.2 98 0.2 SSW 11 17 6 9 1019.7 1016.9 4.6
28/09:30pm 9.8 8.0 9.3 97 0.3 SSW 9 13 5 7 1019.6 1016.7 4.0
28/09:00pm 9.8 7.9 9.2 96 0.3 SSW 9 17 5 9 1019.5 1016.6 3.8
28/08:30pm 9.9 7.7 9.4 97 0.3 S 11 19 6 10 1019.3 1016.4 3.8
28/08:00pm 9.9 8.1 9.4 97 0.3 SSW 9 15 5 8 1019.4 1016.5 3.8
28/07:30pm 9.9 7.6 9.1 95 0.4 S 11 17 6 9 1019.2 1016.3 3.4
28/07:00pm 12.1 9.9 9.3 83 1.5 SSW 11 17 6 9 1018.8 1015.9 2.0
28/06:30pm 12.7 9.5 8.6 76 2.1 S 15 24 8 13 1018.6 1015.7 2.0
28/06:00pm 12.7 8.7 8.4 75 2.2 SSE 19 30 10 16 1018.5 1015.5 2.0
28/05:30pm 14.5 11.3 10.1 75 2.4 S 17 24 9 13 1018.1 1015.2 2.0
28/05:00pm 13.5 10.1 9.0 74 2.4 S 17 24 9 13 1018.2 1015.3 2.0
28/04:30pm 13.8 10.9 9.6 76 2.2 SSW 15 26 8 14 1018.2 1015.3 2.0
28/04:00pm 13.4 11.4 10.0 80 1.8 SSW 11 20 6 11 1018.2 1015.3 2.0
28/03:30pm 14.6 10.9 10.2 75 2.4 S 20 32 11 17 1018.2 1015.3 2.0
28/03:00pm 13.8 10.2 9.8 77 2.1 SSE 19 33 10 18 1018.5 1015.5 2.0
28/02:30pm 13.6 10.2 10.4 81 1.7 SW 19 33 10 18 1018.5 1015.5 1.8
28/02:00pm 13.5 12.4 10.7 83 1.5 S 7 13 4 7 1018.5 1015.5 1.8
28/01:30pm 12.1 9.8 10.5 90 0.9 SE 13 20 7 11 1018.9 1016.0 1.8
28/01:00pm 12.8 11.0 10.7 87 1.1 SSW 11 19 6 10 1018.9 1016.0 1.8
28/12:30pm 11.5 9.5 10.2 92 0.7 SSE 11 15 6 8 1019.0 1016.1 1.8
28/12:00pm 11.1 8.8 10.6 97 0.3 S 13 22 7 12 1019.1 1016.2 1.8
28/11:30am 11.2 9.0 10.9 98 0.2 S 13 19 7 10 1019.0 1016.1 1.6
28/11:00am 11.0 8.7 10.5 97 0.3 S 13 24 7 13 1019.0 1016.1 0.6
28/10:30am 11.7 10.4 11.2 97 0.3 SSW 9 19 5 10 1018.8 1015.9 0.2
28/10:00am 11.9 10.7 11.6 98 0.2 SW 9 13 5 7 1018.7 1015.8 0.2
28/09:30am 11.3 10.2 10.8 97 0.3 S 7 9 4 5 1018.7 1015.8 0.0
28/09:00am 11.2 10.2 11.0 99 0.1 SSW 7 11 4 6 1018.5 1015.5 7.8
28/08:30am 10.9 9.4 10.7 99 0.1 SSW 9 13 5 7 1018.3 1015.4 7.8
28/08:00am 10.7 9.6 10.5 99 0.1 SSW 7 11 4 6 1018.1 1015.2 7.8
28/07:30am 10.3 9.6 10.1 99 0.1 WNW 4 7 2 4 1017.8 1014.9 7.8
28/07:00am 10.1 10.1 9.9 99 0.1 CALM 0 0 0 0 1017.5 1014.6 6.6
28/06:30am 10.0 8.9 9.9 99 0.1 W 6 7 3 4 1017.3 1014.3 6.0
28/06:00am 10.0 10.0 9.9 99 0.1 CALM 0 0 0 0 1017.2 1014.2 5.8
28/05:30am 10.0 8.9 9.9 99 0.1 S 6 9 3 5 1017.0 1014.0 5.4
28/05:00am 10.0 8.7 9.9 99 0.1 S 7 13 4 7 1016.6 1013.7 4.8
28/04:30am 10.0 8.7 9.9 99 0.1 S 7 13 4 7 1016.5 1013.6 4.8
28/04:00am 10.1 8.4 9.9 99 0.1 SSE 9 15 5 8 1016.4 1013.5 4.8
28/03:30am 10.1 9.4 9.9 99 0.1 SW 4 7 2 4 1016.5 1013.6 4.4
28/03:00am 10.1 9.0 9.9 99 0.1 WSW 6 7 3 4 1016.6 1013.7 4.0
28/02:30am 10.0 9.3 9.9 99 0.1 SW 4 6 2 3 1016.8 1013.9 4.0
28/02:00am 10.0 8.7 9.9 99 0.1 SW 7 9 4 5 1017.0 1014.0 4.0
28/01:30am 10.1 10.1 9.9 99 0.1 CALM 0 6 0 3 1017.2 1014.2 3.8
28/01:00am 10.1 9.0 9.9 99 0.1 SW 6 7 3 4 1017.4 1014.5 3.6
28/12:30am 10.0 10.0 9.9 99 0.1 CALM 0 0 0 0 1017.5 1014.6 3.4
28/12:00am 10.0 8.9 9.9 99 0.1 SW 6 7 3 4 1017.6 1014.7 3.4
 
Date/Time
EDT
Temp
°C
App
Temp
°C
Dew
Point
Rel
Hum
%
Delta-T
°C
Wind Press
QNH
hPa
Press
MSL
hPa
Rain
since 9 am
mm
Dir
 
Spd
km/h
Gust
km/h
Spd
kts
Gust
kts
27/11:30pm 10.0 8.9 9.9 99 0.1 SW 6 9 3 5 1017.5 1014.6 3.2
27/11:00pm 10.0 8.3 9.9 99 0.1 SW 9 11 5 6 1017.3 1014.3 3.0
27/10:30pm 10.1 8.4 9.9 99 0.1 WSW 9 11 5 6 1017.5 1014.6 2.8
27/10:00pm 10.0 8.7 9.9 99 0.1 SSW 7 9 4 5 1017.5 1014.6 2.4
27/09:30pm 10.1 8.4 9.9 99 0.1 SSW 9 13 5 7 1017.2 1014.2 1.6
27/09:00pm 10.2 8.5 10.0 99 0.1 SSW 9 13 5 7 1017.0 1014.0 1.6
27/08:30pm 10.3 8.7 10.1 99 0.1 SSW 9 15 5 8 1016.8 1013.9 1.6
27/08:00pm 10.6 9.1 10.4 99 0.1 SW 9 13 5 7 1016.6 1013.7 1.4
27/07:30pm 10.7 9.2 10.5 99 0.1 S 9 17 5 9 1016.4 1013.5 1.2
27/07:00pm 10.9 9.4 10.6 98 0.2 SSW 9 17 5 9 1016.2 1013.3 1.0
27/06:30pm 11.0 8.8 10.7 98 0.2 SSW 13 20 7 11 1015.9 1012.9 0.8
27/06:00pm 11.2 9.4 10.9 98 0.2 S 11 17 6 9 1015.8 1012.8 0.6
27/05:30pm 11.5 10.2 11.2 98 0.2 SSW 9 17 5 9 1016.0 1013.0 0.4
27/05:00pm 11.5 9.8 11.2 98 0.2 SSW 11 19 6 10 1016.0 1013.0 0.4
27/04:30pm 11.7 10.4 11.2 97 0.3 SSW 9 15 5 8 1015.9 1012.9 0.0
27/04:00pm 11.9 10.6 11.3 96 0.3 SSW 9 13 5 7 1015.8 1012.8 0.0
27/03:30pm 12.5 11.1 10.9 90 0.9 SSW 9 15 5 8 1015.9 1012.9 0.0
27/03:00pm 13.1 11.6 10.6 85 1.4 SSW 9 15 5 8 1015.8 1012.8 0.0
27/02:30pm 13.8 12.4 10.8 82 1.6 SSW 9 13 5 7 1015.9 1012.9 0.0
27/02:00pm 14.3 13.2 10.1 76 2.3 ESE 6 11 3 6 1016.0 1013.0 0.0
27/01:30pm 14.0 12.3 9.8 76 2.3 E 9 13 5 7 1016.1 1013.1 0.0
27/01:00pm 14.1 12.8 9.9 76 2.3 E 7 13 4 7 1016.3 1013.4 0.0
27/12:30pm 14.1 12.5 10.1 77 2.2 NE 9 15 5 8 1016.5 1013.6 0.0
27/12:00pm 13.6 11.6 10.0 79 1.9 ENE 11 17 6 9 1016.6 1013.7 0.0
27/11:30am 13.6 11.1 9.8 78 2.0 ENE 13 19 7 10 1016.6 1013.7 0.0
27/11:00am 12.7 10.6 9.9 83 1.5 ENE 11 13 6 7 1016.6 1013.7 0.0
27/10:30am 12.4 10.3 9.8 84 1.4 NE 11 15 6 8 1016.6 1013.7 0.0
27/10:00am 11.8 9.1 9.0 83 1.5 NE 13 19 7 10 1016.7 1013.8 0.0
27/09:30am 11.6 9.0 9.2 85 1.3 NE 13 19 7 10 1016.5 1013.6 0.0
27/09:00am 11.8 8.8 9.4 85 1.3 NNE 15 20 8 11 1016.4 1013.5 0.0
27/08:30am 10.9 8.2 9.0 88 1.0 NE 13 19 7 10 1016.3 1013.4 0.0
27/08:00am 10.1 7.3 8.5 90 0.8 NNE 13 19 7 10 1016.3 1013.4 0.0
27/07:30am 9.9 7.8 8.3 90 0.8 NE 9 13 5 7 1016.1 1013.1 0.0
27/07:00am 9.8 7.7 8.4 91 0.7 NE 9 13 5 7 1016.0 1013.0 0.0
27/06:30am 9.5 7.4 8.1 91 0.7 NE 9 17 5 9 1015.9 1012.9 0.0
27/06:00am 9.4 6.9 8.0 91 0.7 NE 11 13 6 7 1015.6 1012.6 0.0
27/05:30am 9.4 6.9 8.0 91 0.7 NNE 11 17 6 9 1015.7 1012.7 0.0
27/05:00am 9.4 6.9 8.0 91 0.7 NE 11 15 6 8 1015.4 1012.5 0.0
27/04:30am 9.3 7.5 7.9 91 0.7 NE 7 9 4 5 1015.6 1012.6 0.0
27/04:00am 9.4 7.6 8.0 91 0.7 NNE 7 9 4 5 1015.8 1012.8 0.0
27/03:30am 9.6 7.8 8.0 90 0.8 NNE 7 9 4 5 1016.1 1013.1 0.0
27/03:00am 9.6 8.7 7.9 89 0.9 NNE 2 6 1 3 1016.3 1013.4 0.0
27/02:30am 9.6 8.3 7.7 88 0.9 ENE 4 6 2 3 1016.5 1013.6 0.0
27/02:00am 9.5 7.8 7.4 87 1.0 NE 6 7 3 4 1016.7 1013.8 0.0
27/01:30am 9.4 8.4 7.3 87 1.0 NNE 2 6 1 3 1017.1 1014.1 0.0
27/01:00am 9.3 8.3 7.3 87 1.0 NE 2 6 1 3 1017.2 1014.2 0.0
27/12:30am 9.1 7.3 7.1 87 1.0 N 6 7 3 4 1017.3 1014.3 0.0
27/12:00am 9.0 7.2 7.1 88 0.9 E 6 7 3 4 1017.6 1014.7 0.0
 
Date/Time
EDT
Temp
°C
App
Temp
°C
Dew
Point
Rel
Hum
%
Delta-T
°C
Wind Press
QNH
hPa
Press
MSL
hPa
Rain
since 9 am
mm
Dir
 
Spd
km/h
Gust
km/h
Spd
kts
Gust
kts
26/11:30pm 9.0 7.3 7.5 90 0.7 NNE 6 9 3 5 1017.7 1014.8 0.0
26/11:00pm 9.2 7.2 7.2 87 1.0 ENE 7 11 4 6 1017.8 1014.9 0.0
26/10:30pm 9.4 7.6 7.2 86 1.1 ENE 6 9 3 5 1017.9 1015.0 0.0
26/10:00pm 9.7 7.9 7.3 85 1.2 E 6 11 3 6 1018.0 1015.1 0.0
26/09:30pm 9.8 9.2 7.2 84 1.3 CALM 0 6 0 3 1017.8 1014.9 0.0
26/09:00pm 9.9 7.2 7.5 85 1.2 SE 11 17 6 9 1017.5 1014.6 0.0
26/08:30pm 10.2 7.9 7.3 82 1.4 SE 9 13 5 7 1017.4 1014.5 0.0
26/08:00pm 10.5 7.7 7.0 79 1.7 SE 11 19 6 10 1017.1 1014.1 0.0
26/07:30pm 10.8 8.4 6.9 77 1.9 SSE 9 17 5 9 1016.7 1013.8 0.0
26/07:00pm 11.1 8.7 7.0 76 2.0 SSE 9 15 5 8 1016.2 1013.3 0.0
26/06:30pm 11.4 8.2 6.9 74 2.2 SSE 13 22 7 12 1015.9 1012.9 0.0
26/06:00pm 11.8 8.6 6.7 71 2.5 ESE 13 22 7 12 1015.6 1012.6 0.0
26/05:30pm 12.1 8.1 6.8 70 2.6 SE 17 22 9 12 1015.4 1012.5 0.0
26/05:00pm 13.0 10.0 7.5 69 2.8 SE 13 20 7 11 1015.4 1012.5 0.0
26/04:30pm 13.4 10.2 6.7 64 3.4 SSE 13 19 7 10 1015.4 1012.5 0.0
26/04:00pm 13.3 9.5 5.9 61 3.6 S 15 20 8 11 1015.7 1012.7 0.0
26/03:30pm 14.3 11.0 6.4 59 4.0 SSW 13 22 7 12 1015.6 1012.6 0.0

Other Formats:

Comma delimited format used in spreadsheet applications
http://www.bom.gov.au/fwo/IDV60801/IDV60801.94913.axf

JavaScript Object Notation format (JSON) in row-major order
http://www.bom.gov.au/fwo/IDV60801/IDV60801.94913.json